sensor_id;sensor_type;location;lat;lon;timestamp;P1;durP1;ratioP1;P2;durP2;ratioP2
56271;SDS011;42177;48.914;18.160;2024-03-06T00:00:58;15;;;10.9;;
56271;SDS011;42177;48.914;18.160;2024-03-06T00:05:58;15;;;10.9;;
56271;SDS011;42177;48.914;18.160;2024-03-06T00:10:58;14.6;;;11.7;;
56271;SDS011;42177;48.914;18.160;2024-03-06T00:15:58;14.6;;;11.7;;
56271;SDS011;42177;48.914;18.160;2024-03-06T00:20:58;15.8;;;11.5;;
56271;SDS011;42177;48.914;18.160;2024-03-06T00:25:58;15.8;;;11.5;;
56271;SDS011;42177;48.914;18.160;2024-03-06T00:30:58;15.9;;;12.5;;
56271;SDS011;42177;48.914;18.160;2024-03-06T00:35:58;15.9;;;12.5;;
56271;SDS011;42177;48.914;18.160;2024-03-06T00:40:58;18.5;;;12.8;;
56271;SDS011;42177;48.914;18.160;2024-03-06T00:45:58;18.5;;;12.8;;
56271;SDS011;42177;48.914;18.160;2024-03-06T00:50:58;15.7;;;12.5;;
56271;SDS011;42177;48.914;18.160;2024-03-06T00:55:58;15.7;;;12.5;;
56271;SDS011;42177;48.914;18.160;2024-03-06T01:00:58;15.2;;;11.8;;
56271;SDS011;42177;48.914;18.160;2024-03-06T01:05:58;15.2;;;11.8;;
56271;SDS011;42177;48.914;18.160;2024-03-06T01:10:58;15.6;;;12.7;;
56271;SDS011;42177;48.914;18.160;2024-03-06T01:15:58;15.6;;;12.7;;
56271;SDS011;42177;48.914;18.160;2024-03-06T01:20:58;15.5;;;12.2;;
56271;SDS011;42177;48.914;18.160;2024-03-06T01:25:58;15.5;;;12.2;;
56271;SDS011;42177;48.914;18.160;2024-03-06T01:30:58;15;;;12;;
56271;SDS011;42177;48.914;18.160;2024-03-06T01:35:58;15;;;12;;
56271;SDS011;42177;48.914;18.160;2024-03-06T01:40:58;16;;;12.5;;
56271;SDS011;42177;48.914;18.160;2024-03-06T01:45:58;16;;;12.5;;
56271;SDS011;42177;48.914;18.160;2024-03-06T01:50:59;14.1;;;11.5;;
56271;SDS011;42177;48.914;18.160;2024-03-06T01:55:58;14.1;;;11.5;;
56271;SDS011;42177;48.914;18.160;2024-03-06T02:00:58;14.7;;;11.4;;
56271;SDS011;42177;48.914;18.160;2024-03-06T02:05:58;14.7;;;11.4;;
56271;SDS011;42177;48.914;18.160;2024-03-06T02:10:58;14.1;;;10.7;;
56271;SDS011;42177;48.914;18.160;2024-03-06T02:15:58;14.1;;;10.7;;
56271;SDS011;42177;48.914;18.160;2024-03-06T02:20:58;16;;;12.3;;
56271;SDS011;42177;48.914;18.160;2024-03-06T02:25:58;16;;;12.3;;
56271;SDS011;42177;48.914;18.160;2024-03-06T02:30:58;14.6;;;11.8;;
56271;SDS011;42177;48.914;18.160;2024-03-06T02:35:58;14.6;;;11.8;;
56271;SDS011;42177;48.914;18.160;2024-03-06T02:40:58;14;;;11.3;;
56271;SDS011;42177;48.914;18.160;2024-03-06T02:45:58;14;;;11.3;;
56271;SDS011;42177;48.914;18.160;2024-03-06T02:50:59;15.9;;;11.4;;
56271;SDS011;42177;48.914;18.160;2024-03-06T02:55:58;15.9;;;11.4;;
56271;SDS011;42177;48.914;18.160;2024-03-06T03:00:58;16.7;;;12.5;;
56271;SDS011;42177;48.914;18.160;2024-03-06T03:05:58;16.7;;;12.5;;
56271;SDS011;42177;48.914;18.160;2024-03-06T03:10:58;17;;;12.2;;
56271;SDS011;42177;48.914;18.160;2024-03-06T03:15:58;17;;;12.2;;
56271;SDS011;42177;48.914;18.160;2024-03-06T03:20:58;16.8;;;12.7;;
56271;SDS011;42177;48.914;18.160;2024-03-06T03:25:58;16.8;;;12.7;;
56271;SDS011;42177;48.914;18.160;2024-03-06T03:30:58;15.7;;;13.2;;
56271;SDS011;42177;48.914;18.160;2024-03-06T03:35:58;15.7;;;13.2;;
56271;SDS011;42177;48.914;18.160;2024-03-06T03:40:58;17.2;;;12.9;;
56271;SDS011;42177;48.914;18.160;2024-03-06T03:45:58;17.2;;;12.9;;
56271;SDS011;42177;48.914;18.160;2024-03-06T03:50:58;16.4;;;12.9;;
56271;SDS011;42177;48.914;18.160;2024-03-06T03:55:58;16.4;;;12.9;;
56271;SDS011;42177;48.914;18.160;2024-03-06T04:00:58;16.4;;;13;;
56271;SDS011;42177;48.914;18.160;2024-03-06T04:05:58;16.4;;;13;;
56271;SDS011;42177;48.914;18.160;2024-03-06T04:10:58;16.3;;;12.9;;
56271;SDS011;42177;48.914;18.160;2024-03-06T04:15:58;16.3;;;12.9;;
56271;SDS011;42177;48.914;18.160;2024-03-06T04:20:58;17.9;;;12.8;;
56271;SDS011;42177;48.914;18.160;2024-03-06T04:25:58;17.9;;;12.8;;
56271;SDS011;42177;48.914;18.160;2024-03-06T04:30:58;16.6;;;12.9;;
56271;SDS011;42177;48.914;18.160;2024-03-06T04:36:00;16.6;;;12.9;;
56271;SDS011;42177;48.914;18.160;2024-03-06T04:40:58;17.5;;;13.1;;
56271;SDS011;42177;48.914;18.160;2024-03-06T04:45:58;17.5;;;13.1;;
56271;SDS011;42177;48.914;18.160;2024-03-06T04:50:58;15.7;;;13;;
56271;SDS011;42177;48.914;18.160;2024-03-06T04:55:58;15.7;;;13;;
56271;SDS011;42177;48.914;18.160;2024-03-06T05:00:58;16.2;;;12.9;;
56271;SDS011;42177;48.914;18.160;2024-03-06T05:05:58;16.2;;;12.9;;
56271;SDS011;42177;48.914;18.160;2024-03-06T05:10:59;17.7;;;13;;
56271;SDS011;42177;48.914;18.160;2024-03-06T05:15:58;17.7;;;13;;
56271;SDS011;42177;48.914;18.160;2024-03-06T05:20:58;18.1;;;12.7;;
56271;SDS011;42177;48.914;18.160;2024-03-06T05:25:58;18.1;;;12.7;;
56271;SDS011;42177;48.914;18.160;2024-03-06T05:30:58;17.6;;;13.1;;
56271;SDS011;42177;48.914;18.160;2024-03-06T05:35:58;17.6;;;13.1;;
56271;SDS011;42177;48.914;18.160;2024-03-06T05:40:58;19.8;;;13.8;;
56271;SDS011;42177;48.914;18.160;2024-03-06T05:45:58;19.8;;;13.8;;
56271;SDS011;42177;48.914;18.160;2024-03-06T05:50:58;17.8;;;13.4;;
56271;SDS011;42177;48.914;18.160;2024-03-06T05:55:58;17.8;;;13.4;;
56271;SDS011;42177;48.914;18.160;2024-03-06T06:00:58;18.7;;;14.2;;
56271;SDS011;42177;48.914;18.160;2024-03-06T06:05:58;18.7;;;14.2;;
56271;SDS011;42177;48.914;18.160;2024-03-06T06:10:58;17.4;;;13.1;;
56271;SDS011;42177;48.914;18.160;2024-03-06T06:15:58;17.4;;;13.1;;
56271;SDS011;42177;48.914;18.160;2024-03-06T06:20:58;19.9;;;14.3;;
56271;SDS011;42177;48.914;18.160;2024-03-06T06:25:58;19.9;;;14.3;;
56271;SDS011;42177;48.914;18.160;2024-03-06T06:30:58;17.6;;;13.8;;
56271;SDS011;42177;48.914;18.160;2024-03-06T06:35:58;17.6;;;13.8;;
56271;SDS011;42177;48.914;18.160;2024-03-06T06:40:58;17.8;;;14.5;;
56271;SDS011;42177;48.914;18.160;2024-03-06T06:45:58;17.8;;;14.5;;
56271;SDS011;42177;48.914;18.160;2024-03-06T06:50:58;18.5;;;13;;
56271;SDS011;42177;48.914;18.160;2024-03-06T06:55:58;18.5;;;13;;
56271;SDS011;42177;48.914;18.160;2024-03-06T07:00:58;16.2;;;13.6;;
56271;SDS011;42177;48.914;18.160;2024-03-06T07:05:58;16.2;;;13.6;;
56271;SDS011;42177;48.914;18.160;2024-03-06T07:10:58;16.6;;;12.8;;
56271;SDS011;42177;48.914;18.160;2024-03-06T07:15:58;16.6;;;12.8;;
56271;SDS011;42177;48.914;18.160;2024-03-06T07:20:58;14.9;;;12.5;;
56271;SDS011;42177;48.914;18.160;2024-03-06T07:25:58;14.9;;;12.5;;
56271;SDS011;42177;48.914;18.160;2024-03-06T07:30:58;15.9;;;12.6;;
56271;SDS011;42177;48.914;18.160;2024-03-06T07:35:58;15.9;;;12.6;;
56271;SDS011;42177;48.914;18.160;2024-03-06T07:40:58;16.7;;;12.8;;
56271;SDS011;42177;48.914;18.160;2024-03-06T07:45:58;16.7;;;12.8;;
56271;SDS011;42177;48.914;18.160;2024-03-06T07:50:58;14.7;;;12.3;;
56271;SDS011;42177;48.914;18.160;2024-03-06T07:55:58;14.7;;;12.3;;
56271;SDS011;42177;48.914;18.160;2024-03-06T08:00:58;16.3;;;13.1;;
56271;SDS011;42177;48.914;18.160;2024-03-06T08:05:58;16.3;;;13.1;;
56271;SDS011;42177;48.914;18.160;2024-03-06T08:10:58;15.1;;;12.4;;
56271;SDS011;42177;48.914;18.160;2024-03-06T08:15:58;15.1;;;12.4;;
56271;SDS011;42177;48.914;18.160;2024-03-06T08:20:58;15.9;;;13;;
56271;SDS011;42177;48.914;18.160;2024-03-06T08:25:58;15.9;;;13;;
56271;SDS011;42177;48.914;18.160;2024-03-06T08:30:59;15.2;;;12.7;;
56271;SDS011;42177;48.914;18.160;2024-03-06T08:35:58;15.2;;;12.7;;
56271;SDS011;42177;48.914;18.160;2024-03-06T08:40:58;16.8;;;12.7;;
56271;SDS011;42177;48.914;18.160;2024-03-06T08:45:58;16.8;;;12.7;;
56271;SDS011;42177;48.914;18.160;2024-03-06T08:50:58;14.5;;;12;;
56271;SDS011;42177;48.914;18.160;2024-03-06T08:55:58;14.5;;;12;;
56271;SDS011;42177;48.914;18.160;2024-03-06T09:00:58;14.9;;;12.2;;
56271;SDS011;42177;48.914;18.160;2024-03-06T09:05:58;14.9;;;12.2;;
56271;SDS011;42177;48.914;18.160;2024-03-06T09:10:58;14.7;;;11.8;;
56271;SDS011;42177;48.914;18.160;2024-03-06T09:15:58;14.7;;;11.8;;
56271;SDS011;42177;48.914;18.160;2024-03-06T09:20:58;14.2;;;11;;
56271;SDS011;42177;48.914;18.160;2024-03-06T09:25:58;14.2;;;11;;
56271;SDS011;42177;48.914;18.160;2024-03-06T09:30:58;14.3;;;11.6;;
56271;SDS011;42177;48.914;18.160;2024-03-06T09:35:59;14.3;;;11.6;;
56271;SDS011;42177;48.914;18.160;2024-03-06T09:40:58;13.9;;;11;;
56271;SDS011;42177;48.914;18.160;2024-03-06T09:45:58;13.9;;;11;;
56271;SDS011;42177;48.914;18.160;2024-03-06T09:51:00;12.9;;;11;;
56271;SDS011;42177;48.914;18.160;2024-03-06T09:55:58;12.9;;;11;;
56271;SDS011;42177;48.914;18.160;2024-03-06T10:00:58;14.1;;;10.8;;
56271;SDS011;42177;48.914;18.160;2024-03-06T10:05:58;14.1;;;10.8;;
56271;SDS011;42177;48.914;18.160;2024-03-06T10:10:59;12.5;;;10.6;;
56271;SDS011;42177;48.914;18.160;2024-03-06T10:15:59;12.5;;;10.6;;
56271;SDS011;42177;48.914;18.160;2024-03-06T10:20:58;13.1;;;10;;
56271;SDS011;42177;48.914;18.160;2024-03-06T10:25:58;13.1;;;10;;
56271;SDS011;42177;48.914;18.160;2024-03-06T10:31:02;12.7;;;9.4;;
56271;SDS011;42177;48.914;18.160;2024-03-06T10:35:58;12.7;;;9.4;;
56271;SDS011;42177;48.914;18.160;2024-03-06T10:40:58;12.5;;;9.1;;
56271;SDS011;42177;48.914;18.160;2024-03-06T10:46:00;12.5;;;9.1;;
56271;SDS011;42177;48.914;18.160;2024-03-06T10:50:58;10.3;;;8.6;;
56271;SDS011;42177;48.914;18.160;2024-03-06T10:55:58;10.3;;;8.6;;
56271;SDS011;42177;48.914;18.160;2024-03-06T11:00:58;10.7;;;8.9;;
56271;SDS011;42177;48.914;18.160;2024-03-06T11:05:58;10.7;;;8.9;;
56271;SDS011;42177;48.914;18.160;2024-03-06T11:11:18;10.9;;;8.3;;
56271;SDS011;42177;48.914;18.160;2024-03-06T11:15:58;10.9;;;8.3;;
56271;SDS011;42177;48.914;18.160;2024-03-06T11:20:58;11.1;;;8.5;;
56271;SDS011;42177;48.914;18.160;2024-03-06T11:26:01;11.1;;;8.5;;
56271;SDS011;42177;48.914;18.160;2024-03-06T11:30:59;11.2;;;8.7;;
56271;SDS011;42177;48.914;18.160;2024-03-06T11:36:14;11.2;;;8.7;;
56271;SDS011;42177;48.914;18.160;2024-03-06T11:40:58;11.2;;;9;;
56271;SDS011;42177;48.914;18.160;2024-03-06T11:46:07;11.2;;;9;;
56271;SDS011;42177;48.914;18.160;2024-03-06T11:50:58;11.4;;;8.6;;
56271;SDS011;42177;48.914;18.160;2024-03-06T11:55:58;11.4;;;8.6;;
56271;SDS011;42177;48.914;18.160;2024-03-06T12:00:58;11.6;;;8.7;;
56271;SDS011;42177;48.914;18.160;2024-03-06T12:05:58;11.6;;;8.7;;
56271;SDS011;42177;48.914;18.160;2024-03-06T12:10:58;9.5;;;8.4;;
56271;SDS011;42177;48.914;18.160;2024-03-06T12:15:58;9.5;;;8.4;;
56271;SDS011;42177;48.914;18.160;2024-03-06T12:21:00;11.9;;;8.8;;
56271;SDS011;42177;48.914;18.160;2024-03-06T12:26:02;11.9;;;8.8;;
56271;SDS011;42177;48.914;18.160;2024-03-06T12:30:58;11.1;;;8.9;;
56271;SDS011;42177;48.914;18.160;2024-03-06T12:36:00;11.1;;;8.9;;
56271;SDS011;42177;48.914;18.160;2024-03-06T12:40:58;10.2;;;8.6;;
56271;SDS011;42177;48.914;18.160;2024-03-06T12:45:58;10.2;;;8.6;;
56271;SDS011;42177;48.914;18.160;2024-03-06T12:50:58;10.9;;;9;;
56271;SDS011;42177;48.914;18.160;2024-03-06T12:55:58;10.9;;;9;;
56271;SDS011;42177;48.914;18.160;2024-03-06T13:00:58;10.7;;;8.9;;
56271;SDS011;42177;48.914;18.160;2024-03-06T13:05:58;10.7;;;8.9;;
56271;SDS011;42177;48.914;18.160;2024-03-06T13:10:58;10.4;;;8.9;;
56271;SDS011;42177;48.914;18.160;2024-03-06T13:15:58;10.4;;;8.9;;
56271;SDS011;42177;48.914;18.160;2024-03-06T13:20:58;10.1;;;8.6;;
56271;SDS011;42177;48.914;18.160;2024-03-06T13:25:58;10.1;;;8.6;;
56271;SDS011;42177;48.914;18.160;2024-03-06T13:30:58;10.2;;;8.3;;
56271;SDS011;42177;48.914;18.160;2024-03-06T13:35:58;10.2;;;8.3;;
56271;SDS011;42177;48.914;18.160;2024-03-06T13:40:58;10.7;;;7.9;;
56271;SDS011;42177;48.914;18.160;2024-03-06T13:45:58;10.7;;;7.9;;
56271;SDS011;42177;48.914;18.160;2024-03-06T13:50:58;8.9;;;7.7;;
56271;SDS011;42177;48.914;18.160;2024-03-06T13:55:59;8.9;;;7.7;;
56271;SDS011;42177;48.914;18.160;2024-03-06T14:00:58;11.4;;;7.1;;
56271;SDS011;42177;48.914;18.160;2024-03-06T14:05:58;11.4;;;7.1;;
56271;SDS011;42177;48.914;18.160;2024-03-06T14:10:58;8.5;;;6.6;;
56271;SDS011;42177;48.914;18.160;2024-03-06T14:15:58;8.5;;;6.6;;
56271;SDS011;42177;48.914;18.160;2024-03-06T14:20:58;7.7;;;6;;
56271;SDS011;42177;48.914;18.160;2024-03-06T14:25:58;7.7;;;6;;
56271;SDS011;42177;48.914;18.160;2024-03-06T14:30:58;9.2;;;6.6;;
56271;SDS011;42177;48.914;18.160;2024-03-06T14:35:59;9.2;;;6.6;;
56271;SDS011;42177;48.914;18.160;2024-03-06T14:40:58;10.5;;;7.6;;
56271;SDS011;42177;48.914;18.160;2024-03-06T14:45:58;10.5;;;7.6;;
56271;SDS011;42177;48.914;18.160;2024-03-06T14:50:58;12.3;;;9.4;;
56271;SDS011;42177;48.914;18.160;2024-03-06T14:55:58;12.3;;;9.4;;
56271;SDS011;42177;48.914;18.160;2024-03-06T15:00:58;12.9;;;9.4;;
56271;SDS011;42177;48.914;18.160;2024-03-06T15:05:58;12.9;;;9.4;;
56271;SDS011;42177;48.914;18.160;2024-03-06T15:10:58;19.9;;;9.6;;
56271;SDS011;42177;48.914;18.160;2024-03-06T15:15:58;19.9;;;9.6;;
56271;SDS011;42177;48.914;18.160;2024-03-06T15:20:58;12;;;9.8;;
56271;SDS011;42177;48.914;18.160;2024-03-06T15:25:58;12;;;9.8;;
56271;SDS011;42177;48.914;18.160;2024-03-06T15:30:58;15.7;;;9.8;;
56271;SDS011;42177;48.914;18.160;2024-03-06T15:35:59;15.7;;;9.8;;
56271;SDS011;42177;48.914;18.160;2024-03-06T15:40:58;10.7;;;9.1;;
56271;SDS011;42177;48.914;18.160;2024-03-06T15:45:58;10.7;;;9.1;;
56271;SDS011;42177;48.914;18.160;2024-03-06T15:50:58;11.1;;;8.8;;
56271;SDS011;42177;48.914;18.160;2024-03-06T15:55:58;11.1;;;8.8;;
56271;SDS011;42177;48.914;18.160;2024-03-06T16:00:58;11.7;;;9.1;;
56271;SDS011;42177;48.914;18.160;2024-03-06T16:05:58;11.7;;;9.1;;
56271;SDS011;42177;48.914;18.160;2024-03-06T16:10:58;10.3;;;7.7;;
56271;SDS011;42177;48.914;18.160;2024-03-06T16:15:58;10.3;;;7.7;;
56271;SDS011;42177;48.914;18.160;2024-03-06T16:20:58;10.1;;;7.9;;
56271;SDS011;42177;48.914;18.160;2024-03-06T16:25:59;10.1;;;7.9;;
56271;SDS011;42177;48.914;18.160;2024-03-06T16:30:58;8.7;;;7.5;;
56271;SDS011;42177;48.914;18.160;2024-03-06T16:35:58;8.7;;;7.5;;
56271;SDS011;42177;48.914;18.160;2024-03-06T16:40:58;10.9;;;7.2;;
56271;SDS011;42177;48.914;18.160;2024-03-06T16:45:58;10.9;;;7.2;;
56271;SDS011;42177;48.914;18.160;2024-03-06T16:50:58;9.1;;;7.4;;
56271;SDS011;42177;48.914;18.160;2024-03-06T16:55:58;9.1;;;7.4;;
56271;SDS011;42177;48.914;18.160;2024-03-06T17:00:58;10.9;;;8.3;;
56271;SDS011;42177;48.914;18.160;2024-03-06T17:05:58;10.9;;;8.3;;
56271;SDS011;42177;48.914;18.160;2024-03-06T17:10:58;10;;;8.2;;
56271;SDS011;42177;48.914;18.160;2024-03-06T17:15:58;10;;;8.2;;
56271;SDS011;42177;48.914;18.160;2024-03-06T17:20:58;10.1;;;8.7;;
56271;SDS011;42177;48.914;18.160;2024-03-06T17:25:58;10.1;;;8.7;;
56271;SDS011;42177;48.914;18.160;2024-03-06T17:30:58;11.1;;;8.5;;
56271;SDS011;42177;48.914;18.160;2024-03-06T17:35:58;11.1;;;8.5;;
56271;SDS011;42177;48.914;18.160;2024-03-06T17:40:58;11;;;8.3;;
56271;SDS011;42177;48.914;18.160;2024-03-06T17:45:58;11;;;8.3;;
56271;SDS011;42177;48.914;18.160;2024-03-06T17:50:58;12;;;8.8;;
56271;SDS011;42177;48.914;18.160;2024-03-06T17:55:59;12;;;8.8;;
56271;SDS011;42177;48.914;18.160;2024-03-06T18:00:58;12.7;;;8.8;;
56271;SDS011;42177;48.914;18.160;2024-03-06T18:05:58;12.7;;;8.8;;
56271;SDS011;42177;48.914;18.160;2024-03-06T18:10:58;13;;;9.4;;
56271;SDS011;42177;48.914;18.160;2024-03-06T18:15:58;13;;;9.4;;
56271;SDS011;42177;48.914;18.160;2024-03-06T18:20:58;11.8;;;9.5;;
56271;SDS011;42177;48.914;18.160;2024-03-06T18:25:58;11.8;;;9.5;;
56271;SDS011;42177;48.914;18.160;2024-03-06T18:30:58;11.8;;;9.2;;
56271;SDS011;42177;48.914;18.160;2024-03-06T18:35:59;11.8;;;9.2;;
56271;SDS011;42177;48.914;18.160;2024-03-06T18:40:58;11.1;;;8.9;;
56271;SDS011;42177;48.914;18.160;2024-03-06T18:45:58;11.1;;;8.9;;
56271;SDS011;42177;48.914;18.160;2024-03-06T18:50:58;12.1;;;9.1;;
56271;SDS011;42177;48.914;18.160;2024-03-06T18:55:58;12.1;;;9.1;;
56271;SDS011;42177;48.914;18.160;2024-03-06T19:00:58;10.4;;;8.3;;
56271;SDS011;42177;48.914;18.160;2024-03-06T19:05:58;10.4;;;8.3;;
56271;SDS011;42177;48.914;18.160;2024-03-06T19:10:58;10.6;;;8.7;;
56271;SDS011;42177;48.914;18.160;2024-03-06T19:15:58;10.6;;;8.7;;
56271;SDS011;42177;48.914;18.160;2024-03-06T19:20:58;10.6;;;8.1;;
56271;SDS011;42177;48.914;18.160;2024-03-06T19:25:58;10.6;;;8.1;;
56271;SDS011;42177;48.914;18.160;2024-03-06T19:30:58;11.8;;;8.6;;
56271;SDS011;42177;48.914;18.160;2024-03-06T19:35:59;11.8;;;8.6;;
56271;SDS011;42177;48.914;18.160;2024-03-06T19:40:58;10.2;;;7.8;;
56271;SDS011;42177;48.914;18.160;2024-03-06T19:45:58;10.2;;;7.8;;
56271;SDS011;42177;48.914;18.160;2024-03-06T19:50:58;9.8;;;7.4;;
56271;SDS011;42177;48.914;18.160;2024-03-06T19:55:59;9.8;;;7.4;;
56271;SDS011;42177;48.914;18.160;2024-03-06T20:00:58;9.9;;;7.3;;
56271;SDS011;42177;48.914;18.160;2024-03-06T20:05:59;9.9;;;7.3;;
56271;SDS011;42177;48.914;18.160;2024-03-06T20:10:58;8.1;;;6.5;;
56271;SDS011;42177;48.914;18.160;2024-03-06T20:15:59;8.1;;;6.5;;
56271;SDS011;42177;48.914;18.160;2024-03-06T20:20:58;7.8;;;6.2;;
56271;SDS011;42177;48.914;18.160;2024-03-06T20:25:58;7.8;;;6.2;;
56271;SDS011;42177;48.914;18.160;2024-03-06T20:30:58;7.6;;;6.2;;
56271;SDS011;42177;48.914;18.160;2024-03-06T20:35:58;7.6;;;6.2;;
56271;SDS011;42177;48.914;18.160;2024-03-06T20:40:59;7.8;;;6.2;;
56271;SDS011;42177;48.914;18.160;2024-03-06T20:45:58;7.8;;;6.2;;
56271;SDS011;42177;48.914;18.160;2024-03-06T20:50:58;6.9;;;5.5;;
56271;SDS011;42177;48.914;18.160;2024-03-06T20:55:59;6.9;;;5.5;;
56271;SDS011;42177;48.914;18.160;2024-03-06T21:00:58;6.4;;;5;;
56271;SDS011;42177;48.914;18.160;2024-03-06T21:05:58;6.4;;;5;;
56271;SDS011;42177;48.914;18.160;2024-03-06T21:10:58;6.9;;;4.8;;
56271;SDS011;42177;48.914;18.160;2024-03-06T21:15:59;6.9;;;4.8;;
56271;SDS011;42177;48.914;18.160;2024-03-06T21:20:59;6.8;;;4.8;;
56271;SDS011;42177;48.914;18.160;2024-03-06T21:25:58;6.8;;;4.8;;
56271;SDS011;42177;48.914;18.160;2024-03-06T21:30:58;7.3;;;5.2;;
56271;SDS011;42177;48.914;18.160;2024-03-06T21:35:58;7.3;;;5.2;;
56271;SDS011;42177;48.914;18.160;2024-03-06T21:40:58;6.5;;;4.8;;
56271;SDS011;42177;48.914;18.160;2024-03-06T21:45:58;6.5;;;4.8;;
56271;SDS011;42177;48.914;18.160;2024-03-06T21:50:58;7.1;;;5.1;;
56271;SDS011;42177;48.914;18.160;2024-03-06T21:55:58;7.1;;;5.1;;
56271;SDS011;42177;48.914;18.160;2024-03-06T22:00:58;6.8;;;5;;
56271;SDS011;42177;48.914;18.160;2024-03-06T22:05:58;6.8;;;5;;
56271;SDS011;42177;48.914;18.160;2024-03-06T22:10:59;6.4;;;4.8;;
56271;SDS011;42177;48.914;18.160;2024-03-06T22:15:59;6.4;;;4.8;;
56271;SDS011;42177;48.914;18.160;2024-03-06T22:20:58;6.1;;;4.7;;
56271;SDS011;42177;48.914;18.160;2024-03-06T22:25:58;6.1;;;4.7;;
56271;SDS011;42177;48.914;18.160;2024-03-06T22:30:58;5.6;;;4.5;;
56271;SDS011;42177;48.914;18.160;2024-03-06T22:35:59;5.6;;;4.5;;
56271;SDS011;42177;48.914;18.160;2024-03-06T22:40:58;5.8;;;4.6;;
56271;SDS011;42177;48.914;18.160;2024-03-06T22:45:59;5.8;;;4.6;;
56271;SDS011;42177;48.914;18.160;2024-03-06T22:50:58;5.9;;;4.7;;
56271;SDS011;42177;48.914;18.160;2024-03-06T22:55:59;5.9;;;4.7;;
56271;SDS011;42177;48.914;18.160;2024-03-06T23:00:58;4.9;;;4.1;;
56271;SDS011;42177;48.914;18.160;2024-03-06T23:05:58;4.9;;;4.1;;
56271;SDS011;42177;48.914;18.160;2024-03-06T23:10:58;4.7;;;3.8;;
56271;SDS011;42177;48.914;18.160;2024-03-06T23:15:59;4.7;;;3.8;;
56271;SDS011;42177;48.914;18.160;2024-03-06T23:20:58;5.1;;;3.9;;
56271;SDS011;42177;48.914;18.160;2024-03-06T23:25:58;5.1;;;3.9;;
56271;SDS011;42177;48.914;18.160;2024-03-06T23:30:58;4.4;;;3.5;;
56271;SDS011;42177;48.914;18.160;2024-03-06T23:35:59;4.4;;;3.5;;
56271;SDS011;42177;48.914;18.160;2024-03-06T23:40:58;4.3;;;3.5;;
56271;SDS011;42177;48.914;18.160;2024-03-06T23:45:59;4.3;;;3.5;;
56271;SDS011;42177;48.914;18.160;2024-03-06T23:50:58;4.4;;;3.6;;
56271;SDS011;42177;48.914;18.160;2024-03-06T23:55:59;4.4;;;3.6;;
